N375R KLAX-
Flight info
| Callsign | N375R |
|---|---|
| Flight time | N/A |
| Altitude | VFR/025 |
| Route | N |
| Aircraft | E300/L-VGD/C |
Departure
| Time | 2026-04-26 21:57 |
|---|---|
| Airport | Los Angeles International Airport (KLAX) |
Arrival
| Time | N/A |
|---|---|
| Airport | - |
| Time | Latitude | Longitude | Altitude | Speed | Heading |
|---|---|---|---|---|---|
| 2026-04-26 21:47 | 33.93574 | -118.38114 | 94 ft | 0 kts | 309° |
| 2026-04-26 21:48 | 33.93575 | -118.38115 | 94 ft | 1 kts | 270° |
| 2026-04-26 21:48 | 33.93563 | -118.38105 | 91 ft | 11 kts | 141° |
| 2026-04-26 21:48 | 33.93555 | -118.38115 | 91 ft | 0 kts | 281° |
| 2026-04-26 21:48 | 33.93525 | -118.38137 | 92 ft | 15 kts | 227° |
| 2026-04-26 21:49 | 33.93436 | -118.38158 | 92 ft | 14 kts | 71° |
| 2026-04-26 21:49 | 33.93479 | -118.38141 | 90 ft | 7 kts | 242° |
| 2026-04-26 21:49 | 33.93480 | -118.38149 | 90 ft | 9 kts | 27° |
| 2026-04-26 21:49 | 33.93553 | -118.38127 | 91 ft | 12 kts | 357° |
| 2026-04-26 21:50 | 33.93563 | -118.38130 | 91 ft | 2 kts | 277° |
| 2026-04-26 21:50 | 33.93573 | -118.38129 | 94 ft | 2 kts | 119° |
| 2026-04-26 21:50 | 33.93612 | -118.38191 | 93 ft | 10 kts | 279° |
| 2026-04-26 21:50 | 33.93619 | -118.38254 | 95 ft | 6 kts | 285° |
| 2026-04-26 21:51 | 33.93620 | -118.38255 | 95 ft | 0 kts | 289° |
| 2026-04-26 21:52 | 33.93618 | -118.38256 | 97 ft | 2 kts | 156° |
| 2026-04-26 21:53 | 33.93620 | -118.38259 | 95 ft | 4 kts | 288° |
| 2026-04-26 21:53 | 33.93613 | -118.38269 | 95 ft | 3 kts | 359° |
| 2026-04-26 21:53 | 33.93724 | -118.38295 | 105 ft | 0 kts | 278° |
| 2026-04-26 21:53 | 33.93729 | -118.38333 | 105 ft | 7 kts | 267° |
| 2026-04-26 21:54 | 33.93729 | -118.38350 | 105 ft | 0 kts | 260° |
| 2026-04-26 21:56 | 33.93723 | -118.38423 | 104 ft | 26 kts | 263° |
| 2026-04-26 21:56 | 33.93679 | -118.38858 | 103 ft | 86 kts | 263° |
| 2026-04-26 21:56 | 33.93582 | -118.39785 | 387 ft | 122 kts | 261° |
| 2026-04-26 21:57 | 33.93470 | -118.40856 | 812 ft | 134 kts | 261° |
| 2026-04-26 21:57 | 33.93338 | -118.42004 | 1213 ft | 131 kts | 259° |
| 2026-04-26 21:57 | 33.93169 | -118.43101 | 1525 ft | 141 kts | 259° |
| 2026-04-26 21:57 | 33.93475 | -118.44216 | 1707 ft | 156 kts | 311° |
| 2026-04-26 21:58 | 33.94486 | -118.44800 | 1759 ft | 166 kts | 331° |
| 2026-04-26 21:58 | 33.95570 | -118.45339 | 1788 ft | 167 kts | 332° |
| 2026-04-26 21:58 | 33.96643 | -118.45873 | 1880 ft | 168 kts | 331° |
| 2026-04-26 21:58 | 33.97718 | -118.46403 | 1912 ft | 170 kts | 335° |
| 2026-04-26 21:59 | 33.98920 | -118.46724 | 1803 ft | 183 kts | 343° |
| 2026-04-26 21:59 | 34.00122 | -118.46775 | 1824 ft | 161 kts | 360° |
| 2026-04-26 21:59 | 34.01098 | -118.46527 | 2552 ft | 138 kts | 5° |
| 2026-04-26 21:59 | 34.02046 | -118.46249 | 2468 ft | 141 kts | 7° |
| 2026-04-26 22:00 | 34.02928 | -118.45769 | 2495 ft | 144 kts | 40° |
| 2026-04-26 22:00 | 34.03330 | -118.44658 | 2406 ft | 155 kts | 92° |
| 2026-04-26 22:00 | 34.02938 | -118.43588 | 2487 ft | 135 kts | 145° |
| 2026-04-26 22:00 | 34.02137 | -118.43217 | 2513 ft | 122 kts | 183° |
| 2026-04-26 22:01 | 34.01351 | -118.42718 | 2533 ft | 135 kts | 150° |
| 2026-04-26 22:01 | 34.00624 | -118.41983 | 2553 ft | 137 kts | 145° |
| 2026-04-26 22:01 | 33.99870 | -118.41331 | 2524 ft | 131 kts | 166° |
| 2026-04-26 22:01 | 33.99016 | -118.41058 | 2517 ft | 125 kts | 174° |
| 2026-04-26 22:02 | 33.98172 | -118.40776 | 2485 ft | 125 kts | 175° |
| 2026-04-26 22:02 | 33.97334 | -118.40488 | 2496 ft | 125 kts | 174° |
| 2026-04-26 22:02 | 33.96487 | -118.40287 | 2470 ft | 122 kts | 186° |
| 2026-04-26 22:02 | 33.95641 | -118.40270 | 2463 ft | 125 kts | 181° |
| 2026-04-26 22:03 | 33.94780 | -118.40056 | 2463 ft | 125 kts | 177° |
| 2026-04-26 22:03 | 33.93925 | -118.39811 | 2449 ft | 127 kts | 174° |
| 2026-04-26 22:03 | 33.93068 | -118.39558 | 2487 ft | 125 kts | 176° |
| 2026-04-26 22:03 | 33.92214 | -118.39328 | 2496 ft | 126 kts | 176° |
| 2026-04-26 22:04 | 33.91364 | -118.39064 | 2525 ft | 128 kts | 173° |
| 2026-04-26 22:04 | 33.90495 | -118.38711 | 2510 ft | 134 kts | 168° |
| 2026-04-26 22:04 | 33.89701 | -118.38119 | 2557 ft | 134 kts | 154° |
| 2026-04-26 22:04 | 33.88868 | -118.37654 | 2621 ft | 129 kts | 171° |
| 2026-04-26 22:05 | 33.88061 | -118.37170 | 2610 ft | 144 kts | 132° |
| 2026-04-26 22:05 | 33.87882 | -118.35971 | 2557 ft | 149 kts | 78° |
| 2026-04-26 22:05 | 33.88074 | -118.34739 | 2568 ft | 150 kts | 74° |
| 2026-04-26 22:05 | 33.88399 | -118.33570 | 2603 ft | 147 kts | 57° |
| 2026-04-26 22:06 | 33.89007 | -118.32610 | 2612 ft | 143 kts | 38° |
| 2026-04-26 22:06 | 33.89772 | -118.31896 | 2701 ft | 134 kts | 21° |
| 2026-04-26 22:06 | 33.90603 | -118.31324 | 2625 ft | 143 kts | 29° |
| 2026-04-26 22:06 | 33.91436 | -118.30688 | 2507 ft | 143 kts | 13° |
| 2026-04-26 22:07 | 33.92370 | -118.30190 | 2312 ft | 150 kts | 19° |
| 2026-04-26 22:07 | 33.93323 | -118.30093 | 2185 ft | 129 kts | 323° |
| 2026-04-26 22:07 | 33.93828 | -118.30895 | 1928 ft | 126 kts | 286° |
| 2026-04-26 22:07 | 33.94054 | -118.31914 | 1508 ft | 121 kts | 278° |
| 2026-04-26 22:08 | 33.94155 | -118.32841 | 1159 ft | 104 kts | 269° |
| 2026-04-26 22:08 | 33.94162 | -118.33695 | 1015 ft | 102 kts | 263° |
| 2026-04-26 22:08 | 33.94098 | -118.34538 | 970 ft | 100 kts | 262° |
| 2026-04-26 22:08 | 33.94014 | -118.35399 | 809 ft | 107 kts | 264° |
| 2026-04-26 22:09 | 33.93951 | -118.36279 | 688 ft | 105 kts | 260° |
| 2026-04-26 22:09 | 33.93861 | -118.37184 | 530 ft | 110 kts | 257° |
| 2026-04-26 22:09 | 33.93764 | -118.38099 | 298 ft | 113 kts | 257° |
| 2026-04-26 22:09 | 33.93640 | -118.39161 | 570 ft | 134 kts | 259° |
| 2026-04-26 22:10 | 33.93534 | -118.40316 | 902 ft | 137 kts | 260° |
| 2026-04-26 22:10 | 33.93414 | -118.41441 | 1373 ft | 140 kts | 261° |
| 2026-04-26 22:10 | 33.92934 | -118.42262 | 1440 ft | 123 kts | 199° |
| 2026-04-26 22:10 | 33.92261 | -118.41678 | 1462 ft | 144 kts | 105° |
| 2026-04-26 22:11 | 33.92376 | -118.40439 | 1210 ft | 144 kts | 80° |
| 2026-04-26 22:11 | 33.92558 | -118.39290 | 1142 ft | 139 kts | 80° |
| 2026-04-26 22:11 | 33.92707 | -118.38155 | 1100 ft | 137 kts | 82° |
| 2026-04-26 22:11 | 33.92882 | -118.37035 | 1024 ft | 135 kts | 78° |
| 2026-04-26 22:12 | 33.93094 | -118.35945 | 988 ft | 132 kts | 65° |
| 2026-04-26 22:12 | 33.93704 | -118.35574 | 937 ft | 92 kts | 295° |
| 2026-04-26 22:12 | 33.93826 | -118.36518 | 643 ft | 124 kts | 266° |
| 2026-04-26 22:12 | 33.93802 | -118.37537 | 299 ft | 118 kts | 261° |
| 2026-04-26 22:13 | 33.93719 | -118.38456 | 147 ft | 100 kts | 256° |
| 2026-04-26 22:13 | 33.93646 | -118.39160 | 105 ft | 70 kts | 256° |
| 2026-04-26 22:13 | 33.93591 | -118.39625 | 105 ft | 36 kts | 264° |
| 2026-04-26 22:13 | 33.93565 | -118.39871 | 106 ft | 29 kts | 266° |
| 2026-04-26 22:14 | 33.93538 | -118.40059 | 107 ft | 22 kts | 253° |
| 2026-04-26 22:14 | 33.93467 | -118.40230 | 102 ft | 17 kts | 212° |
| 2026-04-26 22:14 | 33.93368 | -118.40299 | 94 ft | 18 kts | 220° |
| 2026-04-26 22:14 | 33.93277 | -118.40332 | 91 ft | 10 kts | 173° |
| 2026-04-26 22:15 | 33.93271 | -118.40329 | 91 ft | 0 kts | 143° |